PWSweather.com
Personal Weather Stations
Station Observations

ThassosGR

Lat: 40.743206, Lon: 24.577205

Elevation: 150

Station Type:

http://www.realestate-thassos.com/weather-thassos/

Latest ConditionsUpdated 7:17:16 AM GMT+02:02 Friday, Jun 23, 2017
Currently Today's Max Today's Min Today's Average
Temperature 88.0°F31.1°C 88.0°F31.1°C 70.2°F21.2°C 74.6°F23.7°C
Dew Point 65.3°F18.5°C 66.1°F18.9°C 58.6°F14.8°C 60.8°F16.0°C
Winds Calm Calm 2.2 mph SE3.5 kmh SE - 0.9 mph 1.4 kmh
Wind Gusts 2.2 mph3.5 kmh 4.5 mph7.2 kmh - -
Humidity 47% 70% 47% 62%
Pressure 29.73 in1006.8 mb 29.79 in1008.8 mb 29.73 in1006.8 mb -
Hour Temp Dew Point Humidity Winds Wind Gusts Pressure Precip Precip Rate Daily Precip Total
07:17 AM 88.0°F31.1°C 65.3°F18.5°C 47% Calm Calm 2.2 mph3.5 kmh 29.73 in1006.8 mb 0.00 in0.0 mm 0.00 in0.0 mm 0.00 in0.0 mm
07:03 AM 86.9°F30.5°C 65.5°F18.6°C 49% Calm Calm 1.6 mph2.6 kmh 29.76 in1007.8 mb 0.00 in0.0 mm 0.00 in0.0 mm 0.00 in0.0 mm
06:49 AM 84.9°F29.4°C 65.4°F18.6°C 52% 0.7 mph S1.1 kmh S 2.2 mph3.5 kmh 29.78 in1008.5 mb 0.00 in0.0 mm 0.00 in0.0 mm 0.00 in0.0 mm
06:35 AM 78.8°F26.0°C 66.1°F18.9°C 65% 0.7 mph SE1.1 kmh SE 1.6 mph2.6 kmh 29.78 in1008.5 mb 0.00 in0.0 mm 0.00 in0.0 mm 0.00 in0.0 mm
06:21 AM 72.5°F22.5°C 61.4°F16.3°C 68% Calm Calm 1.6 mph2.6 kmh 29.79 in1008.8 mb 0.00 in0.0 mm 0.00 in0.0 mm 0.00 in0.0 mm
06:07 AM 71.4°F21.9°C 60.3°F15.7°C 68% Calm Calm 3.8 mph6.1 kmh 29.78 in1008.5 mb 0.00 in0.0 mm 0.00 in0.0 mm 0.00 in0.0 mm
05:53 AM 71.2°F21.8°C 60.2°F15.7°C 68% 1.6 mph SE2.6 kmh SE 3.1 mph5.0 kmh 29.77 in1008.1 mb 0.00 in0.0 mm 0.00 in0.0 mm 0.00 in0.0 mm
05:39 AM 70.9°F21.6°C 59.8°F15.4°C 68% 1.6 mph SE2.6 kmh SE 3.8 mph6.1 kmh 29.78 in1008.5 mb 0.00 in0.0 mm 0.00 in0.0 mm 0.00 in0.0 mm
05:25 AM 70.7°F21.5°C 59.6°F15.3°C 68% 0.7 mph SE1.1 kmh SE 3.1 mph5.0 kmh 29.77 in1008.1 mb 0.00 in0.0 mm 0.00 in0.0 mm 0.00 in0.0 mm
05:11 AM 70.2°F21.2°C 59.5°F15.3°C 69% 1.6 mph SE2.6 kmh SE 3.1 mph5.0 kmh 29.77 in1008.1 mb 0.00 in0.0 mm 0.00 in0.0 mm 0.00 in0.0 mm
04:57 AM 70.7°F21.5°C 60.1°F15.6°C 69% 1.6 mph SE2.6 kmh SE 3.1 mph5.0 kmh 29.77 in1008.1 mb 0.00 in0.0 mm 0.00 in0.0 mm 0.00 in0.0 mm
04:43 AM 71.2°F21.8°C 61.0°F16.1°C 70% 0.7 mph SE1.1 kmh SE 3.1 mph5.0 kmh 29.77 in1008.1 mb 0.00 in0.0 mm 0.00 in0.0 mm 0.00 in0.0 mm
04:29 AM 71.2°F21.8°C 60.6°F15.9°C 69% Calm Calm 3.8 mph6.1 kmh 29.76 in1007.8 mb 0.00 in0.0 mm 0.00 in0.0 mm 0.00 in0.0 mm
04:15 AM 71.2°F21.8°C 61.0°F16.1°C 70% 1.6 mph SE2.6 kmh SE 3.1 mph5.0 kmh 29.76 in1007.8 mb 0.00 in0.0 mm 0.00 in0.0 mm 0.00 in0.0 mm
04:01 AM 71.6°F22.0°C 60.9°F16.1°C 69% 0.7 mph SE1.1 kmh SE 3.1 mph5.0 kmh 29.76 in1007.8 mb 0.00 in0.0 mm 0.00 in0.0 mm 0.00 in0.0 mm
03:47 AM 71.8°F22.1°C 60.7°F15.9°C 68% 1.6 mph SE2.6 kmh SE 2.2 mph3.5 kmh 29.76 in1007.8 mb 0.00 in0.0 mm 0.00 in0.0 mm 0.00 in0.0 mm
03:33 AM 72.0°F22.2°C 60.9°F16.1°C 68% 2.2 mph SE3.5 kmh SE 3.1 mph5.0 kmh 29.77 in1008.1 mb 0.00 in0.0 mm 0.00 in0.0 mm 0.00 in0.0 mm
03:19 AM 72.7°F22.6°C 61.1°F16.2°C 67% 1.6 mph SE2.6 kmh SE 3.1 mph5.0 kmh 29.77 in1008.1 mb 0.00 in0.0 mm 0.00 in0.0 mm 0.00 in0.0 mm
03:05 AM 73.8°F23.2°C 63.0°F17.2°C 69% 1.6 mph ESE2.6 kmh ESE 4.5 mph7.2 kmh 29.77 in1008.1 mb 0.00 in0.0 mm 0.00 in0.0 mm 0.00 in0.0 mm
02:51 AM 73.4°F23.0°C 60.1°F15.6°C 63% Calm Calm 1.6 mph2.6 kmh 29.78 in1008.5 mb 0.00 in0.0 mm 0.00 in0.0 mm 0.00 in0.0 mm
02:37 AM 73.8°F23.2°C 59.5°F15.3°C 61% Calm Calm 1.6 mph2.6 kmh 29.78 in1008.5 mb 0.00 in0.0 mm 0.00 in0.0 mm 0.00 in0.0 mm
02:23 AM 74.7°F23.7°C 59.9°F15.5°C 60% 0.7 mph SE1.1 kmh SE 1.6 mph2.6 kmh 29.78 in1008.5 mb 0.00 in0.0 mm 0.00 in0.0 mm 0.00 in0.0 mm
02:09 AM 75.9°F24.4°C 60.1°F15.6°C 58% 0.7 mph SE1.1 kmh SE 3.1 mph5.0 kmh 29.78 in1008.5 mb 0.00 in0.0 mm 0.00 in0.0 mm 0.00 in0.0 mm
01:55 AM 75.9°F24.4°C 59.1°F15.1°C 56% 0.7 mph SSE1.1 kmh SSE 1.6 mph2.6 kmh 29.78 in1008.5 mb 0.00 in0.0 mm 0.00 in0.0 mm 0.00 in0.0 mm
01:41 AM 75.4°F24.1°C 59.1°F15.1°C 57% 0.7 mph SE1.1 kmh SE 3.1 mph5.0 kmh 29.77 in1008.1 mb 0.00 in0.0 mm 0.00 in0.0 mm 0.00 in0.0 mm
01:27 AM 74.3°F23.5°C 59.5°F15.3°C 60% 0.7 mph SE1.1 kmh SE 3.1 mph5.0 kmh 29.78 in1008.5 mb 0.00 in0.0 mm 0.00 in0.0 mm 0.00 in0.0 mm
01:13 AM 75.6°F24.2°C 59.8°F15.4°C 58% 0.7 mph SE1.1 kmh SE 2.2 mph3.5 kmh 29.78 in1008.5 mb 0.00 in0.0 mm 0.00 in0.0 mm 0.00 in0.0 mm
12:59 AM 75.2°F24.0°C 59.4°F15.2°C 58% Calm Calm 2.2 mph3.5 kmh 29.78 in1008.5 mb 0.00 in0.0 mm 0.00 in0.0 mm 0.00 in0.0 mm
12:45 AM 74.8°F23.8°C 59.1°F15.1°C 58% 1.6 mph SE2.6 kmh SE 3.1 mph5.0 kmh 29.78 in1008.5 mb 0.00 in0.0 mm 0.00 in0.0 mm 0.00 in0.0 mm
12:31 AM 75.6°F24.2°C 58.8°F14.9°C 56% 0.7 mph SE1.1 kmh SE 3.1 mph5.0 kmh 29.78 in1008.5 mb 0.00 in0.0 mm 0.00 in0.0 mm 0.00 in0.0 mm
12:17 AM 75.4°F24.1°C 58.6°F14.8°C 56% 2.2 mph SE3.5 kmh SE 3.8 mph6.1 kmh 29.78 in1008.5 mb 0.00 in0.0 mm 0.00 in0.0 mm 0.00 in0.0 mm
12:03 AM 75.9°F24.4°C 58.6°F14.8°C 55% 0.7 mph SE1.1 kmh SE 3.8 mph6.1 kmh 29.77 in1008.1 mb 0.00 in0.0 mm 0.00 in0.0 mm 0.00 in0.0 mm